Time;durP1;ratioP1;P1;durP2;ratioP2;P2;SDS_P1;SDS_P2;PMS_P1;PMS_P2;Temp;Humidity;BMP_temperature;BMP_pressure;BME280_temperature;BME280_humidity;BME280_pressure;Samples;Min_cycle;Max_cycle;Signal;HPM_P1;HPM_P2
2022/11/27 00:00:43;;;;;;;2.10;1.20;;;17.60;70.10;;;;;;4987864;28;20097;-22
2022/11/27 00:03:09;;;;;;;1.83;1.38;;;17.60;70.00;;;;;;4987313;28;20058;-22
2022/11/27 00:05:34;;;;;;;1.40;1.30;;;17.60;70.20;;;;;;4989076;28;20070;-22
2022/11/27 00:08:00;;;;;;;1.20;1.10;;;17.60;70.20;;;;;;4987533;28;20046;-23
2022/11/27 00:10:26;;;;;;;1.10;1.00;;;17.60;70.20;;;;;;4984775;28;20074;-23
2022/11/27 00:12:51;;;;;;;1.35;1.20;;;17.60;70.00;;;;;;4988060;28;20050;-24
2022/11/27 00:15:17;;;;;;;1.33;1.00;;;17.60;70.00;;;;;;4988267;28;20122;-24
2022/11/27 00:17:43;;;;;;;1.13;1.00;;;17.60;70.10;;;;;;4988767;28;20030;-23
2022/11/27 00:20:09;;;;;;;0.90;0.90;;;17.70;70.00;;;;;;4988056;28;20439;-22
2022/11/27 00:22:34;;;;;;;1.00;1.00;;;17.70;70.00;;;;;;4984957;28;20439;-22
2022/11/27 00:25:00;;;;;;;1.08;0.93;;;17.60;70.10;;;;;;4984140;28;20427;-22
2022/11/27 00:27:25;;;;;;;1.10;0.93;;;17.60;70.00;;;;;;4985605;28;20038;-23
2022/11/27 00:29:51;;;;;;;1.00;0.90;;;17.60;70.00;;;;;;4988274;28;20051;-26
2022/11/27 00:32:16;;;;;;;1.10;1.10;;;17.70;70.10;;;;;;4983541;28;20435;-23
2022/11/27 00:34:42;;;;;;;1.77;1.13;;;17.60;70.70;;;;;;4984284;28;20096;-22
2022/11/27 00:37:07;;;;;;;1.65;1.27;;;17.60;70.00;;;;;;4982348;28;20045;-22
2022/11/27 00:39:33;;;;;;;0.75;0.73;;;17.60;70.00;;;;;;4983939;28;20046;-30
2022/11/27 00:41:59;;;;;;;1.30;1.20;;;17.60;70.00;;;;;;4987467;28;20039;-22
2022/11/27 00:44:24;;;;;;;1.40;1.08;;;17.60;69.90;;;;;;4988593;28;20061;-23
2022/11/27 00:46:51;;;;;;;0.80;0.80;;;17.60;69.90;;;;;;4988454;28;20108;-23
2022/11/27 00:49:16;;;;;;;2.35;1.38;;;17.70;70.00;;;;;;4987404;28;20035;-22
2022/11/27 00:51:42;;;;;;;1.30;1.00;;;17.70;69.90;;;;;;4988755;28;20134;-24
2022/11/27 00:54:08;;;;;;;1.40;1.30;;;17.60;69.80;;;;;;4983392;28;20473;-24
2022/11/27 00:56:36;;;;;;;3.90;1.00;;;17.70;69.70;;;;;;4986992;28;20050;-22
2022/11/27 00:59:02;;;;;;;0.88;0.88;;;17.70;69.70;;;;;;4987257;28;20046;-24
2022/11/27 01:01:32;;;;;;;1.25;1.15;;;17.60;69.90;;;;;;4987137;28;20079;-23
2022/11/27 01:03:59;;;;;;;1.35;1.05;;;17.60;69.80;;;;;;4986796;28;20064;-24
2022/11/27 01:06:25;;;;;;;1.38;1.27;;;17.70;69.70;;;;;;4987189;28;20786;-23
2022/11/27 01:08:50;;;;;;;2.22;0.93;;;17.70;69.60;;;;;;4986722;28;20042;-22
2022/11/27 01:11:21;;;;;;;1.55;0.90;;;17.70;69.60;;;;;;4987354;28;20539;-22
2022/11/27 01:13:47;;;;;;;1.00;0.90;;;17.60;69.70;;;;;;4987728;28;20408;-22
2022/11/27 01:16:19;;;;;;;1.00;0.70;;;17.60;69.70;;;;;;4986641;28;20062;-22
2022/11/27 01:18:45;;;;;;;1.23;1.00;;;17.60;69.80;;;;;;4987101;28;20151;-22
2022/11/27 01:21:11;;;;;;;1.20;1.00;;;17.60;69.90;;;;;;4986156;28;20184;-22
2022/11/27 01:23:37;;;;;;;0.80;0.80;;;17.60;69.80;;;;;;4986625;28;20043;-22
2022/11/27 01:26:06;;;;;;;1.15;0.95;;;17.60;69.90;;;;;;4986479;28;20045;-24
2022/11/27 01:28:32;;;;;;;1.13;0.88;;;17.60;69.80;;;;;;4986446;28;20133;-22
2022/11/27 01:30:57;;;;;;;1.20;1.10;;;17.60;69.70;;;;;;4986232;28;20546;-25
2022/11/27 01:33:23;;;;;;;1.17;1.08;;;17.60;69.60;;;;;;4987896;28;20649;-25
2022/11/27 01:36:07;;;;;;;1.30;1.10;;;17.60;69.80;;;;;;4986278;28;20057;-24
2022/11/27 01:38:33;;;;;;;1.52;1.23;;;17.60;69.70;;;;;;4984728;28;20125;-22
2022/11/27 01:41:04;;;;;;;0.70;0.70;;;17.60;69.80;;;;;;4985957;28;20133;-22
2022/11/27 01:43:37;;;;;;;1.00;1.00;;;17.60;69.80;;;;;;4984484;28;20054;-26
2022/11/27 01:46:04;;;;;;;0.82;0.73;;;17.60;69.70;;;;;;4986402;28;20105;-22
2022/11/27 01:48:30;;;;;;;0.85;0.85;;;17.60;69.60;;;;;;4981399;28;20034;-25
2022/11/27 01:50:55;;;;;;;1.05;0.82;;;17.60;69.80;;;;;;4983578;28;20034;-19
2022/11/27 01:53:21;;;;;;;1.20;1.10;;;17.60;69.70;;;;;;4986826;28;20573;-22
2022/11/27 01:55:48;;;;;;;0.85;0.73;;;17.60;69.80;;;;;;4987016;28;20061;-22
2022/11/27 01:58:20;;;;;;;0.75;0.75;;;17.60;69.80;;;;;;4967834;28;20065;-23
2022/11/27 02:00:45;;;;;;;0.77;0.75;;;17.60;69.80;;;;;;4985983;28;20117;-22
2022/11/27 02:03:11;;;;;;;0.65;0.65;;;17.60;69.70;;;;;;4985834;28;20510;-22
2022/11/27 02:05:37;;;;;;;0.88;0.77;;;17.60;69.80;;;;;;4986169;28;20046;-23
2022/11/27 02:08:08;;;;;;;0.88;0.82;;;17.60;69.80;;;;;;4984299;28;20030;-22
2022/11/27 02:10:47;;;;;;;0.88;0.82;;;17.60;69.70;;;;;;4984725;28;20030;-22
2022/11/27 02:13:19;;;;;;;0.90;0.80;;;17.60;69.70;;;;;;5013554;28;20041;-22
2022/11/27 02:16:12;;;;;;;0.73;0.70;;;17.60;69.70;;;;;;4984398;28;20496;-24
2022/11/27 02:18:56;;;;;;;1.38;0.73;;;17.70;69.60;;;;;;4983695;28;20065;-22
2022/11/27 02:21:43;;;;;;;0.70;0.57;;;17.60;69.60;;;;;;4987320;28;20050;-22
2022/11/27 02:24:29;;;;;;;0.52;0.50;;;17.50;69.70;;;;;;4983161;28;20162;-22
2022/11/27 02:27:21;;;;;;;0.90;0.73;;;17.50;69.80;;;;;;4985969;28;20137;-26
2022/11/27 02:29:47;;;;;;;0.50;0.50;;;17.50;69.80;;;;;;4984607;28;20051;-23
2022/11/27 02:32:12;;;;;;;0.80;0.80;;;17.50;69.80;;;;;;4987651;28;20049;-22
2022/11/27 02:34:58;;;;;;;0.93;0.82;;;17.50;69.80;;;;;;4990811;28;20042;-23
2022/11/27 02:37:42;;;;;;;0.80;0.80;;;17.50;70.10;;;;;;4989698;28;20050;-24
2022/11/27 02:40:10;;;;;;;0.70;0.70;;;17.50;70.00;;;;;;5001995;28;20050;-24
2022/11/27 02:42:44;;;;;;;1.02;0.90;;;17.50;70.10;;;;;;4987448;28;20042;-22
2022/11/27 02:45:12;;;;;;;1.27;0.65;;;17.50;69.90;;;;;;4969248;28;20077;-23
2022/11/27 02:47:39;;;;;;;0.70;0.70;;;17.50;70.00;;;;;;4989342;28;20125;-26
2022/11/27 02:50:10;;;;;;;1.08;0.70;;;17.50;69.90;;;;;;4985715;28;20042;-23
2022/11/27 02:52:36;;;;;;;2.10;0.60;;;17.50;70.10;;;;;;4985036;28;20549;-24
2022/11/27 02:55:04;;;;;;;1.08;0.95;;;17.50;70.00;;;;;;4984566;28;20050;-22
2022/11/27 02:57:29;;;;;;;0.63;0.63;;;17.50;70.10;;;;;;4983462;28;20574;-25
2022/11/27 02:59:55;;;;;;;0.70;0.70;;;17.50;70.00;;;;;;4972863;28;20046;-22
2022/11/27 03:02:26;;;;;;;0.90;0.55;;;17.50;69.80;;;;;;4989318;28;20604;-22
2022/11/27 03:04:52;;;;;;;0.60;0.60;;;17.50;70.10;;;;;;4987108;28;20431;-30
2022/11/27 03:07:46;;;;;;;1.92;0.65;;;17.40;70.20;;;;;;4988290;28;20077;-24
2022/11/27 03:10:37;;;;;;;0.80;0.68;;;17.50;70.00;;;;;;4981337;28;20057;-24
2022/11/27 03:13:02;;;;;;;0.80;0.68;;;17.50;70.10;;;;;;4982531;28;20042;-25
2022/11/27 03:15:38;;;;;;;1.33;0.60;;;17.50;70.20;;;;;;4986367;28;20101;-22
2022/11/27 03:18:40;;;;;;;0.98;0.80;;;17.60;70.00;;;;;;4987857;28;20170;-23
2022/11/27 03:21:27;;;;;;;0.70;0.52;;;17.40;70.20;;;;;;4986465;28;20050;-24
2022/11/27 03:23:53;;;;;;;1.13;0.82;;;17.40;70.10;;;;;;4988122;28;20042;-23
2022/11/27 03:26:18;;;;;;;0.60;0.60;;;17.40;70.20;;;;;;4988781;28;20132;-23
2022/11/27 03:28:44;;;;;;;0.52;0.52;;;17.40;70.30;;;;;;4989619;28;20048;-22
2022/11/27 03:31:10;;;;;;;0.50;0.50;;;17.40;70.30;;;;;;5015935;28;20045;-26
2022/11/27 03:33:35;;;;;;;0.60;0.60;;;17.50;70.10;;;;;;4989791;28;20050;-22
2022/11/27 03:36:01;;;;;;;0.50;0.50;;;17.40;70.30;;;;;;4989135;28;20100;-20
2022/11/27 03:38:27;;;;;;;0.95;0.70;;;17.40;70.30;;;;;;4990189;28;20397;-21
2022/11/27 03:40:59;;;;;;;0.60;0.60;;;17.40;70.30;;;;;;4988219;28;20043;-23
2022/11/27 03:43:27;;;;;;;0.75;0.75;;;17.40;70.30;;;;;;4987313;28;20044;-21
2022/11/27 03:46:00;;;;;;;0.60;0.50;;;17.40;70.40;;;;;;4983563;28;20059;-23
2022/11/27 03:48:51;;;;;;;0.70;0.70;;;17.30;70.60;;;;;;4988882;28;20046;-23
2022/11/27 03:51:21;;;;;;;0.40;0.40;;;17.40;70.50;;;;;;4972289;28;20087;-23
2022/11/27 03:53:57;;;;;;;0.93;0.40;;;17.30;70.50;;;;;;4988154;28;20098;-21
2022/11/27 03:56:34;;;;;;;0.50;0.50;;;17.30;70.80;;;;;;4985554;28;20061;-22
2022/11/27 03:59:15;;;;;;;0.63;0.63;;;17.30;70.70;;;;;;4988068;28;20035;-25
2022/11/27 04:01:41;;;;;;;0.60;0.52;;;17.40;70.60;;;;;;4972917;28;20042;-25
2022/11/27 04:04:06;;;;;;;0.40;0.40;;;17.30;70.60;;;;;;4985301;28;20059;-22
2022/11/27 04:06:32;;;;;;;0.60;0.55;;;17.40;70.50;;;;;;4988277;28;20096;-23
2022/11/27 04:08:58;;;;;;;1.45;0.50;;;17.30;70.60;;;;;;4988794;28;20403;-22
2022/11/27 04:11:23;;;;;;;0.60;0.60;;;17.40;70.70;;;;;;4986466;28;20073;-22
2022/11/27 04:13:51;;;;;;;0.50;0.50;;;17.40;70.50;;;;;;4988280;28;20092;-22
2022/11/27 04:16:17;;;;;;;0.80;0.60;;;17.40;70.50;;;;;;4986149;28;20049;-24
2022/11/27 04:18:42;;;;;;;0.50;0.50;;;17.40;70.60;;;;;;4986994;28;20046;-22
2022/11/27 04:21:08;;;;;;;0.65;0.60;;;17.40;70.70;;;;;;4986348;28;20534;-21
2022/11/27 04:23:34;;;;;;;0.50;0.50;;;17.30;70.50;;;;;;4986162;28;20181;-26
2022/11/27 04:25:59;;;;;;;0.40;0.40;;;17.30;70.70;;;;;;4988451;28;20439;-22
2022/11/27 04:28:25;;;;;;;0.63;0.60;;;17.40;70.50;;;;;;4983599;28;20050;-23
2022/11/27 04:30:52;;;;;;;0.75;0.50;;;17.40;70.40;;;;;;4981547;28;20034;-23
2022/11/27 04:33:18;;;;;;;0.70;0.70;;;17.30;70.80;;;;;;4985705;28;20506;-25
2022/11/27 04:35:43;;;;;;;0.70;0.70;;;17.30;71.10;;;;;;4988234;28;20150;-23
2022/11/27 04:38:09;;;;;;;0.57;0.40;;;17.30;71.10;;;;;;4987153;28;20039;-22
2022/11/27 04:40:35;;;;;;;0.57;0.57;;;17.30;70.90;;;;;;4987893;28;20050;-24
2022/11/27 04:43:00;;;;;;;0.70;0.70;;;17.30;70.90;;;;;;4988283;28;20507;-22
2022/11/27 04:45:26;;;;;;;1.10;0.52;;;17.30;70.60;;;;;;4987723;28;20050;-23
2022/11/27 04:47:52;;;;;;;1.33;0.63;;;17.30;70.70;;;;;;4985571;28;20058;-22
2022/11/27 04:50:17;;;;;;;0.43;0.35;;;17.30;71.30;;;;;;4987065;28;20052;-22
2022/11/27 04:52:43;;;;;;;0.45;0.45;;;17.40;70.70;;;;;;4988175;28;20053;-25
2022/11/27 04:55:09;;;;;;;0.47;0.45;;;17.30;70.90;;;;;;5002216;28;20503;-23
2022/11/27 04:57:34;;;;;;;0.38;0.38;;;17.30;71.00;;;;;;4987892;28;20059;-24
2022/11/27 05:00:00;;;;;;;0.55;0.50;;;17.30;70.90;;;;;;4986506;28;20121;-23
2022/11/27 05:02:25;;;;;;;1.65;0.65;;;17.30;70.90;;;;;;4981646;28;20546;-22
2022/11/27 05:04:51;;;;;;;0.50;0.50;;;17.30;70.90;;;;;;4987185;28;20049;-22
2022/11/27 05:07:16;;;;;;;0.65;0.40;;;17.30;70.90;;;;;;4986639;28;20585;-23
2022/11/27 05:09:42;;;;;;;0.30;0.30;;;17.30;71.20;;;;;;4987996;28;20038;-22
2022/11/27 05:12:08;;;;;;;0.63;0.60;;;17.40;71.00;;;;;;4986520;28;20538;-23
2022/11/27 05:14:33;;;;;;;0.50;0.50;;;17.30;70.90;;;;;;4987646;28;20046;-22
2022/11/27 05:16:59;;;;;;;0.70;0.50;;;17.30;71.10;;;;;;4985992;28;20046;-23
2022/11/27 05:19:26;;;;;;;0.40;0.40;;;17.20;71.20;;;;;;4986442;28;20101;-24
2022/11/27 05:21:52;;;;;;;0.50;0.50;;;17.20;71.30;;;;;;4987308;28;20105;-23
2022/11/27 05:24:18;;;;;;;0.68;0.50;;;17.30;71.30;;;;;;4983756;28;20042;-22
2022/11/27 05:26:44;;;;;;;0.40;0.40;;;17.30;71.90;;;;;;4986367;28;20049;-30
2022/11/27 05:29:10;;;;;;;0.40;0.40;;;17.30;71.00;;;;;;4987063;28;20046;-22
2022/11/27 05:31:35;;;;;;;0.38;0.38;;;17.50;70.70;;;;;;4985323;28;20054;-25
2022/11/27 05:34:01;;;;;;;0.57;0.57;;;17.30;70.70;;;;;;4988296;28;20065;-23
2022/11/27 05:36:27;;;;;;;0.50;0.50;;;17.30;70.90;;;;;;4986536;28;20130;-22
2022/11/27 05:38:53;;;;;;;1.10;1.10;;;17.40;70.70;;;;;;4986527;28;20499;-23
2022/11/27 05:41:18;;;;;;;1.17;1.08;;;17.40;70.80;;;;;;4986932;28;20045;-24
2022/11/27 05:43:44;;;;;;;1.40;1.30;;;17.40;70.70;;;;;;4986611;28;20459;-23
2022/11/27 05:46:11;;;;;;;2.00;1.85;;;17.20;71.10;;;;;;4986574;28;20499;-23
2022/11/27 05:48:37;;;;;;;2.22;1.80;;;17.30;71.20;;;;;;5015452;28;20206;-24
2022/11/27 05:51:03;;;;;;;2.15;2.05;;;17.30;71.10;;;;;;4987584;28;20059;-24
2022/11/27 05:53:29;;;;;;;2.40;2.20;;;17.30;70.90;;;;;;4985300;28;20061;-22
2022/11/27 05:55:59;;;;;;;2.47;2.28;;;17.30;71.00;;;;;;4986011;28;20470;-23
2022/11/27 05:58:24;;;;;;;2.47;2.28;;;17.30;70.90;;;;;;4986878;28;20065;-22
2022/11/27 06:00:50;;;;;;;2.90;2.55;;;17.30;70.80;;;;;;4982384;28;20405;-21
2022/11/27 06:03:15;;;;;;;2.85;2.65;;;17.40;70.70;;;;;;4987033;28;20117;-23
2022/11/27 06:05:41;;;;;;;2.75;2.55;;;17.40;70.80;;;;;;4989273;28;20042;-22
2022/11/27 06:08:07;;;;;;;2.35;2.20;;;17.30;70.80;;;;;;4990134;28;20499;-23
2022/11/27 06:10:32;;;;;;;2.50;2.30;;;17.30;71.10;;;;;;4990376;28;20041;-22
2022/11/27 06:12:58;;;;;;;2.70;2.50;;;17.30;71.00;;;;;;4990262;28;20050;-23
2022/11/27 06:15:23;;;;;;;2.45;2.25;;;17.40;70.90;;;;;;4989969;28;20046;-24
2022/11/27 06:17:49;;;;;;;2.20;2.10;;;17.40;70.80;;;;;;4990306;28;20065;-24
2022/11/27 06:20:15;;;;;;;2.10;2.00;;;17.30;70.90;;;;;;4990398;28;20042;-22
2022/11/27 06:22:40;;;;;;;2.45;2.25;;;17.40;71.10;;;;;;4991063;28;20030;-23
2022/11/27 06:25:06;;;;;;;2.08;1.90;;;17.30;71.90;;;;;;4990916;28;20052;-24
2022/11/27 06:27:33;;;;;;;2.75;1.95;;;17.30;71.10;;;;;;4985475;28;20053;-22
2022/11/27 06:29:58;;;;;;;2.40;2.20;;;17.30;71.00;;;;;;4990816;28;20051;-23
2022/11/27 06:32:24;;;;;;;1.92;1.83;;;17.30;71.90;;;;;;4989389;28;20046;-24
2022/11/27 06:34:49;;;;;;;2.53;2.38;;;17.30;71.90;;;;;;4986143;28;20050;-22
2022/11/27 06:37:15;;;;;;;2.22;2.13;;;17.30;71.20;;;;;;4989505;28;20464;-25
2022/11/27 06:39:41;;;;;;;1.77;1.67;;;17.30;71.20;;;;;;4990162;28;20054;-24
2022/11/27 06:42:06;;;;;;;2.45;1.80;;;17.30;71.30;;;;;;4986486;28;20038;-24
2022/11/27 06:44:32;;;;;;;1.65;1.55;;;17.40;71.30;;;;;;4990038;28;20046;-22
2022/11/27 06:46:57;;;;;;;2.00;1.90;;;17.30;71.30;;;;;;4990056;28;20080;-22
2022/11/27 06:49:23;;;;;;;1.95;1.85;;;17.30;71.30;;;;;;4987287;28;20046;-23
2022/11/27 06:51:49;;;;;;;1.58;1.48;;;17.30;72.10;;;;;;4990412;28;20056;-25
2022/11/27 06:54:15;;;;;;;1.80;1.70;;;17.30;71.20;;;;;;4989024;28;20033;-25
2022/11/27 06:56:40;;;;;;;1.95;1.85;;;17.30;71.30;;;;;;4990072;28;20471;-23
2022/11/27 06:59:06;;;;;;;1.90;1.80;;;17.30;71.20;;;;;;4989256;28;20592;-24
2022/11/27 07:01:33;;;;;;;1.63;1.52;;;17.30;71.10;;;;;;4988740;28;20038;-23
2022/11/27 07:03:58;;;;;;;1.52;1.42;;;17.40;71.10;;;;;;4989359;28;20034;-23
2022/11/27 07:06:25;;;;;;;2.00;1.80;;;17.40;71.10;;;;;;4985091;28;20042;-22
2022/11/27 07:08:51;;;;;;;1.80;1.70;;;17.40;71.10;;;;;;4989998;28;20046;-22
2022/11/27 07:11:21;;;;;;;1.88;1.77;;;17.40;71.30;;;;;;4989276;28;20049;-25
2022/11/27 07:13:47;;;;;;;1.88;1.77;;;17.40;71.10;;;;;;4990155;28;20056;-24
2022/11/27 07:16:13;;;;;;;1.58;1.48;;;17.30;71.20;;;;;;4987370;28;20454;-24
2022/11/27 07:18:40;;;;;;;1.50;1.40;;;17.30;71.30;;;;;;4988519;28;20046;-24
2022/11/27 07:21:06;;;;;;;1.70;1.60;;;17.30;71.30;;;;;;4988867;28;20043;-22
2022/11/27 07:23:31;;;;;;;1.27;1.27;;;17.40;72.00;;;;;;4989366;28;20526;-22
2022/11/27 07:25:57;;;;;;;1.38;1.35;;;17.40;71.20;;;;;;4986023;28;20411;-24
2022/11/27 07:28:23;;;;;;;1.40;1.30;;;17.30;71.30;;;;;;4988852;28;20074;-23
2022/11/27 07:30:56;;;;;;;1.60;1.50;;;17.30;71.30;;;;;;4987595;28;20038;-23
2022/11/27 07:33:22;;;;;;;1.63;1.52;;;17.30;71.20;;;;;;4988730;28;20042;-23
2022/11/27 07:35:47;;;;;;;1.33;1.23;;;17.40;71.10;;;;;;4989373;28;20038;-23
2022/11/27 07:38:13;;;;;;;1.40;1.30;;;17.40;71.20;;;;;;4987154;28;20038;-25
2022/11/27 07:40:38;;;;;;;1.08;1.08;;;17.40;71.30;;;;;;4983843;28;20062;-21
2022/11/27 07:43:04;;;;;;;1.20;1.10;;;17.40;71.20;;;;;;4982120;28;20480;-34
2022/11/27 07:45:30;;;;;;;0.90;0.90;;;17.30;71.30;;;;;;4988698;28;20053;-25
2022/11/27 07:47:55;;;;;;;1.20;1.10;;;17.40;71.30;;;;;;4989339;28;20038;-23
2022/11/27 07:50:21;;;;;;;1.10;1.08;;;17.40;71.30;;;;;;4988407;28;20038;-21
2022/11/27 07:52:46;;;;;;;2.10;1.10;;;17.30;71.30;;;;;;4989363;28;20050;-24
2022/11/27 07:55:12;;;;;;;1.10;1.02;;;17.40;71.50;;;;;;4989488;28;20512;-22
2022/11/27 07:57:38;;;;;;;1.20;1.00;;;17.30;71.30;;;;;;4985170;28;20125;-22
2022/11/27 08:00:04;;;;;;;1.50;1.27;;;17.40;71.50;;;;;;4989206;28;20042;-23
2022/11/27 08:02:30;;;;;;;1.02;1.02;;;17.30;71.30;;;;;;4987087;28;20042;-25
2022/11/27 08:04:55;;;;;;;1.02;1.00;;;17.40;71.50;;;;;;4989124;28;20065;-24
2022/11/27 08:07:26;;;;;;;1.00;1.00;;;17.40;71.50;;;;;;4986553;28;20050;-22
2022/11/27 08:09:52;;;;;;;1.27;1.17;;;17.40;71.30;;;;;;4986642;28;20408;-23
2022/11/27 08:12:17;;;;;;;1.10;1.00;;;17.40;71.30;;;;;;4988240;28;20057;-22
2022/11/27 08:14:43;;;;;;;1.08;0.98;;;17.40;71.40;;;;;;4988179;28;20459;-23
2022/11/27 08:17:11;;;;;;;0.98;0.98;;;17.40;71.30;;;;;;4986803;28;20070;-22
2022/11/27 08:19:37;;;;;;;1.00;1.00;;;17.40;71.40;;;;;;4986862;28;20137;-23
2022/11/27 08:22:02;;;;;;;1.00;0.90;;;17.40;71.40;;;;;;4984791;28;20129;-25
2022/11/27 08:24:28;;;;;;;1.25;0.90;;;17.40;71.50;;;;;;4985196;28;20500;-23
2022/11/27 08:26:53;;;;;;;1.08;0.93;;;17.40;72.20;;;;;;4988695;28;20047;-23
2022/11/27 08:29:19;;;;;;;1.52;1.42;;;17.40;71.50;;;;;;4986329;28;20038;-26
2022/11/27 08:31:45;;;;;;;1.35;1.08;;;17.40;71.50;;;;;;4986796;28;20050;-24
2022/11/27 08:34:10;;;;;;;1.65;1.00;;;17.40;71.50;;;;;;4988704;28;20062;-22
2022/11/27 08:36:36;;;;;;;1.40;1.30;;;17.40;71.60;;;;;;4986603;28;20067;-24
2022/11/27 08:39:01;;;;;;;0.70;0.70;;;17.40;71.50;;;;;;4989148;28;20547;-24
2022/11/27 08:41:27;;;;;;;0.95;0.95;;;17.50;71.30;;;;;;4987627;28;20100;-28
2022/11/27 08:43:52;;;;;;;1.25;0.90;;;17.40;71.30;;;;;;4983764;28;20519;-23
2022/11/27 08:46:18;;;;;;;1.20;1.10;;;17.50;71.40;;;;;;4988164;28;20105;-25
2022/11/27 08:48:43;;;;;;;0.70;0.70;;;17.40;71.40;;;;;;4987197;28;20050;-23
2022/11/27 08:51:10;;;;;;;0.82;0.82;;;17.40;71.30;;;;;;4988562;28;20080;-24
2022/11/27 08:53:36;;;;;;;0.90;0.90;;;17.40;71.50;;;;;;4986493;28;20054;-23
2022/11/27 08:56:10;;;;;;;0.70;0.70;;;17.40;71.50;;;;;;5017289;28;20108;-23
2022/11/27 08:58:36;;;;;;;1.52;1.05;;;17.40;71.60;;;;;;4979437;28;20038;-23
2022/11/27 09:01:28;;;;;;;0.98;0.70;;;17.40;71.50;;;;;;4985579;28;20046;-23
2022/11/27 09:03:54;;;;;;;0.85;0.85;;;17.40;71.50;;;;;;4983503;28;20049;-22
2022/11/27 09:06:21;;;;;;;0.98;0.98;;;17.40;71.50;;;;;;4987486;28;20042;-20
2022/11/27 09:08:47;;;;;;;0.60;0.60;;;17.40;71.60;;;;;;4985367;28;20050;-22
2022/11/27 09:11:14;;;;;;;0.70;0.70;;;17.40;71.50;;;;;;4987595;28;20097;-24
2022/11/27 09:13:39;;;;;;;1.92;0.77;;;17.40;71.50;;;;;;4987318;28;20066;-22
2022/11/27 09:16:09;;;;;;;0.88;0.88;;;17.50;71.50;;;;;;4987027;28;20070;-22
2022/11/27 09:18:35;;;;;;;1.58;0.98;;;17.50;71.30;;;;;;4985831;28;20038;-21
2022/11/27 09:21:04;;;;;;;0.98;0.90;;;17.60;71.50;;;;;;4985633;28;20100;-18
2022/11/27 09:23:29;;;;;;;0.98;0.98;;;17.70;71.40;;;;;;4987295;28;20696;-21
2022/11/27 09:26:01;;;;;;;0.85;0.85;;;17.70;70.80;;;;;;4985757;28;20078;-18
2022/11/27 09:28:27;;;;;;;0.70;0.70;;;17.70;71.20;;;;;;4984736;28;20050;-18
2022/11/27 09:30:56;;;;;;;1.23;1.13;;;17.60;71.20;;;;;;4985904;28;20050;-20
2022/11/27 09:33:23;;;;;;;0.95;0.80;;;17.60;71.60;;;;;;4987382;28;20042;-17
2022/11/27 09:35:48;;;;;;;0.85;0.85;;;17.50;72.40;;;;;;4983123;28;20085;-18
2022/11/27 09:38:14;;;;;;;0.80;0.80;;;17.60;71.90;;;;;;4988010;28;20062;-18
2022/11/27 09:40:47;;;;;;;0.82;0.75;;;17.50;71.90;;;;;;4988984;28;20046;-18
2022/11/27 09:43:13;;;;;;;0.75;0.75;;;17.50;71.70;;;;;;4985557;28;20081;-19
2022/11/27 09:45:45;;;;;;;0.88;0.80;;;17.50;71.80;;;;;;4989895;28;20058;-18
2022/11/27 09:48:13;;;;;;;5.65;1.00;;;17.60;71.70;;;;;;4987858;28;20042;-18
2022/11/27 09:50:48;;;;;;;0.80;0.80;;;17.50;71.90;;;;;;4989426;28;20407;-18
2022/11/27 09:53:23;;;;;;;0.60;0.60;;;17.50;72.20;;;;;;4990515;28;20475;-18
2022/11/27 09:55:49;;;;;;;0.75;0.75;;;17.40;72.20;;;;;;4987440;28;20516;-19
2022/11/27 09:58:15;;;;;;;0.98;0.98;;;17.40;72.30;;;;;;4989807;28;20049;-23
2022/11/27 10:00:45;;;;;;;2.10;2.00;;;17.50;72.10;;;;;;4988161;28;20038;-18
2022/11/27 10:03:15;;;;;;;2.10;2.00;;;17.50;72.10;;;;;;4632088;28;10000122;-18
2022/11/27 10:05:47;;;;;;;3.05;2.85;;;17.50;72.10;;;;;;4984119;28;20058;-18
2022/11/27 10:08:25;;;;;;;4.05;3.08;;;17.50;71.70;;;;;;4983801;28;20058;-21
2022/11/27 10:11:03;;;;;;;4.05;3.40;;;17.50;71.90;;;;;;4984035;28;20138;-18
2022/11/27 10:13:59;;;;;;;3.95;3.55;;;17.50;71.90;;;;;;4980007;28;20102;-18
2022/11/27 10:16:34;;;;;;;3.80;3.50;;;17.50;71.80;;;;;;4978649;28;20121;-22
2022/11/27 10:19:10;;;;;;;3.88;3.58;;;17.50;71.90;;;;;;4977350;28;20054;-17
2022/11/27 10:21:41;;;;;;;3.28;3.00;;;17.60;71.90;;;;;;4997257;28;20042;-19
2022/11/27 10:24:12;;;;;;;3.80;3.50;;;17.60;71.70;;;;;;4980852;28;20073;-20
2022/11/27 10:26:44;;;;;;;3.22;3.03;;;17.50;71.90;;;;;;5010053;28;20069;-18
2022/11/27 10:29:19;;;;;;;3.97;3.67;;;17.60;71.50;;;;;;4981355;28;20046;-18
2022/11/27 10:31:52;;;;;;;3.15;2.95;;;17.60;71.80;;;;;;4998346;28;20050;-18
2022/11/27 10:34:24;;;;;;;3.10;2.90;;;17.60;71.80;;;;;;4979155;28;20279;-18
2022/11/27 10:36:50;;;;;;;7.18;3.15;;;17.60;72.00;;;;;;4977791;28;20515;-18
2022/11/27 10:39:39;;;;;;;2.97;2.78;;;17.60;71.90;;;;;;4982071;28;20061;-18
2022/11/27 10:42:12;;;;;;;2.85;2.65;;;17.60;71.90;;;;;;4985125;28;20049;-18
2022/11/27 10:44:47;;;;;;;2.75;2.55;;;17.60;71.80;;;;;;4980387;28;20038;-34
2022/11/27 10:47:12;;;;;;;4.53;2.55;;;17.60;71.50;;;;;;4986180;28;20053;-19
2022/11/27 10:49:39;;;;;;;2.30;2.20;;;17.60;71.70;;;;;;4985679;28;20034;-18
2022/11/27 10:52:04;;;;;;;2.60;2.40;;;17.60;71.60;;;;;;4989667;28;20169;-18
2022/11/27 10:54:33;;;;;;;2.70;2.50;;;17.60;71.50;;;;;;4989626;28;20102;-24
2022/11/27 10:57:07;;;;;;;2.63;2.42;;;17.60;71.60;;;;;;4988179;28;20046;-18
2022/11/27 10:59:45;;;;;;;2.95;2.67;;;17.70;71.50;;;;;;4987757;28;20088;-18
2022/11/27 11:02:29;;;;;;;2.50;2.30;;;17.60;71.50;;;;;;4988286;28;20116;-18
2022/11/27 11:04:54;;;;;;;2.78;2.58;;;17.60;72.50;;;;;;4987520;28;20046;-24
2022/11/27 11:07:23;;;;;;;2.35;2.25;;;17.60;71.80;;;;;;4988994;28;20057;-20
2022/11/27 11:09:49;;;;;;;2.70;2.50;;;17.60;71.60;;;;;;4983053;28;20133;-22
2022/11/27 11:12:19;;;;;;;2.00;1.90;;;17.60;72.50;;;;;;4987960;28;20137;-18
2022/11/27 11:14:58;;;;;;;2.67;1.92;;;17.60;71.60;;;;;;4987600;28;20038;-18
2022/11/27 11:17:33;;;;;;;2.38;2.17;;;17.50;71.80;;;;;;4987514;28;20042;-27
2022/11/27 11:19:58;;;;;;;2.40;2.20;;;17.60;72.90;;;;;;4984848;28;21393;-19
2022/11/27 11:22:24;;;;;;;2.25;2.00;;;17.50;72.20;;;;;;4984068;28;20045;-18
2022/11/27 11:24:53;;;;;;;2.50;2.30;;;17.50;72.20;;;;;;4983878;28;20525;-18
2022/11/27 11:27:22;;;;;;;2.55;2.35;;;17.50;72.20;;;;;;4988105;28;20542;-22
2022/11/27 11:29:53;;;;;;;2.17;2.00;;;17.50;72.00;;;;;;4988994;28;20065;-17
2022/11/27 11:32:18;;;;;;;1.80;1.70;;;17.60;72.20;;;;;;4985045;28;20574;-18
2022/11/27 11:34:45;;;;;;;10.30;1.95;;;17.60;72.10;;;;;;4987615;28;20129;-18
2022/11/27 11:37:31;;;;;;;2.20;1.75;;;17.60;72.00;;;;;;4971753;28;20050;-17
2022/11/27 11:40:13;;;;;;;5.43;1.65;;;17.60;72.00;;;;;;5014390;28;20046;-17
2022/11/27 11:43:02;;;;;;;1.60;1.48;;;17.60;71.90;;;;;;4987161;28;20038;-18
2022/11/27 11:45:29;;;;;;;2.17;2.03;;;17.70;71.80;;;;;;4988008;28;20061;-19
2022/11/27 11:47:57;;;;;;;1.48;1.38;;;17.60;71.80;;;;;;4987100;28;20133;-18
2022/11/27 11:50:52;;;;;;;1.67;1.58;;;17.60;71.90;;;;;;4984128;28;20500;-18
2022/11/27 11:53:37;;;;;;;2.35;1.70;;;17.60;72.00;;;;;;4985905;28;20046;-18
2022/11/27 11:56:09;;;;;;;1.60;1.50;;;17.50;72.00;;;;;;4988880;28;20050;-18
2022/11/27 11:58:54;;;;;;;1.70;1.60;;;17.60;72.00;;;;;;4986901;28;20042;-18
2022/11/27 12:01:35;;;;;;;2.28;2.13;;;17.60;71.90;;;;;;4987454;28;20038;-18
2022/11/27 12:04:24;;;;;;;1.60;1.50;;;17.50;72.10;;;;;;4986187;28;20285;-18
2022/11/27 12:07:04;;;;;;;1.80;1.70;;;17.50;72.00;;;;;;4986048;28;20042;-17
2022/11/27 12:09:34;;;;;;;1.50;1.33;;;17.50;72.00;;;;;;4988537;28;20137;-18
2022/11/27 12:12:28;;;;;;;1.67;1.58;;;17.60;71.90;;;;;;4986573;28;20038;-18
2022/11/27 12:15:02;;;;;;;1.42;1.33;;;17.50;72.00;;;;;;4986901;28;20085;-18
2022/11/27 12:17:56;;;;;;;2.17;1.40;;;17.60;72.00;;;;;;4989131;28;20176;-18
2022/11/27 12:20:59;;;;;;;1.40;1.30;;;17.50;72.00;;;;;;5016652;28;20105;-18
2022/11/27 12:23:49;;;;;;;1.10;1.10;;;17.50;72.00;;;;;;4987113;28;20125;-18
2022/11/27 12:26:25;;;;;;;2.10;1.30;;;17.50;71.90;;;;;;4985518;28;20586;-18
2022/11/27 12:29:20;;;;;;;1.33;1.23;;;17.60;71.80;;;;;;4987591;28;20173;-18
2022/11/27 12:32:18;;;;;;;2.05;1.40;;;17.60;71.80;;;;;;4981852;28;20085;-18
2022/11/27 12:34:57;;;;;;;1.70;1.45;;;17.60;71.60;;;;;;4985655;28;20407;-18
2022/11/27 12:37:45;;;;;;;1.80;1.50;;;17.50;71.90;;;;;;4984840;28;20041;-19
2022/11/27 12:40:22;;;;;;;1.35;1.25;;;17.50;71.70;;;;;;4986993;28;20491;-18
2022/11/27 12:43:01;;;;;;;1.08;1.08;;;17.60;71.60;;;;;;4987782;28;20418;-24
2022/11/27 12:45:31;;;;;;;1.15;1.00;;;17.60;71.60;;;;;;4983156;28;20385;-18
2022/11/27 12:48:29;;;;;;;2.53;1.35;;;17.60;71.70;;;;;;4999538;28;20061;-18
2022/11/27 12:51:11;;;;;;;1.40;1.30;;;17.60;71.60;;;;;;4984790;28;20035;-19
2022/11/27 12:53:45;;;;;;;1.08;1.08;;;17.70;71.40;;;;;;4985557;28;20034;-17
2022/11/27 12:56:23;;;;;;;1.40;1.30;;;17.60;71.40;;;;;;4987774;28;20039;-18
2022/11/27 12:58:55;;;;;;;1.30;1.27;;;17.60;71.30;;;;;;4984465;28;20401;-18